createdAt,value
2023-06-07T00:00:08.478Z,18.12
2023-06-07T00:03:00.604Z,18.95
2023-06-07T00:05:46.459Z,18.44
2023-06-07T00:08:32.011Z,18.29
2023-06-07T00:11:17.711Z,18.07
2023-06-07T00:14:04.336Z,19.11
2023-06-07T00:16:51.419Z,17.95
2023-06-07T00:19:37.106Z,17.99
2023-06-07T00:22:23.034Z,18.76
2023-06-07T00:25:09.774Z,17.90
2023-06-07T00:27:55.561Z,18.95
2023-06-07T00:30:41.199Z,17.89
2023-06-07T00:33:27.852Z,18.88
2023-06-07T00:36:13.492Z,18.01
2023-06-07T00:38:58.696Z,18.82
2023-06-07T00:41:45.473Z,18.58
2023-06-07T00:44:32.541Z,18.84
2023-06-07T00:47:18.764Z,17.97
2023-06-07T00:50:07.468Z,18.58
2023-06-07T00:52:53.721Z,17.63
2023-06-07T00:55:39.559Z,18.69
2023-06-07T00:58:26.716Z,18.41
2023-06-07T01:01:12.136Z,18.57
2023-06-07T01:03:58.670Z,18.48
2023-06-07T01:06:45.043Z,18.46
2023-06-07T01:09:32.574Z,18.39
2023-06-07T01:12:19.518Z,17.82
2023-06-07T01:15:05.576Z,17.24
2023-06-07T01:17:54.850Z,18.08
2023-06-07T01:20:47.235Z,16.76
2023-06-07T01:23:34.023Z,17.94
2023-06-07T01:26:20.149Z,17.09
2023-06-07T01:29:07.358Z,18.06
2023-06-07T01:31:58.040Z,18.04
2023-06-07T01:34:44.086Z,17.12
2023-06-07T01:37:32.336Z,17.86
2023-06-07T01:40:18.978Z,17.28
2023-06-07T01:43:05.475Z,17.71
2023-06-07T01:45:53.009Z,16.74
2023-06-07T01:48:38.140Z,17.80
2023-06-07T01:51:23.395Z,16.84
2023-06-07T01:54:08.621Z,16.63
2023-06-07T01:57:06.145Z,17.69
2023-06-07T02:00:11.046Z,17.68
2023-06-07T02:03:10.919Z,16.60
2023-06-07T02:06:07.369Z,17.65
2023-06-07T02:08:56.083Z,17.64
2023-06-07T02:11:42.762Z,17.72
2023-06-07T02:14:28.499Z,16.68
2023-06-07T02:17:13.845Z,16.90
2023-06-07T02:19:59.112Z,16.91
2023-06-07T02:22:44.711Z,16.70
2023-06-07T02:25:31.836Z,16.67
2023-06-07T02:28:17.237Z,16.98
2023-06-07T02:31:02.643Z,16.58
2023-06-07T02:33:49.440Z,16.49
2023-06-07T02:36:41.014Z,17.63
2023-06-07T02:39:26.634Z,17.64
2023-06-07T02:42:12.006Z,17.63
2023-06-07T02:44:57.269Z,17.28
2023-06-07T02:47:43.187Z,17.21
2023-06-07T02:50:28.817Z,17.55
2023-06-07T02:53:15.612Z,16.47
2023-06-07T02:56:01.441Z,16.90
2023-06-07T02:58:46.612Z,17.54
2023-06-07T03:01:34.366Z,17.49
2023-06-07T03:04:21.291Z,17.49
2023-06-07T03:07:10.790Z,16.43
2023-06-07T03:09:59.719Z,17.42
2023-06-07T03:12:45.313Z,16.81
2023-06-07T03:15:31.109Z,17.06
2023-06-07T03:18:18.345Z,17.15
2023-06-07T03:21:10.787Z,17.15
2023-06-07T03:23:56.710Z,17.08
2023-06-07T03:26:43.335Z,17.02
2023-06-07T03:29:31.390Z,16.91
2023-06-07T03:32:17.477Z,16.49
2023-06-07T03:35:05.163Z,16.12
2023-06-07T03:37:50.421Z,15.82
2023-06-07T03:40:41.284Z,15.76
2023-06-07T03:43:28.713Z,16.89
2023-06-07T03:46:14.265Z,16.87
2023-06-07T03:48:59.625Z,15.74
2023-06-07T03:51:45.126Z,16.58
2023-06-07T03:54:32.006Z,16.57
2023-06-07T03:57:20.256Z,16.34
2023-06-07T04:00:07.676Z,16.73
2023-06-07T04:03:01.509Z,16.49
2023-06-07T04:05:48.768Z,16.62
2023-06-07T04:08:37.610Z,16.06
2023-06-07T04:11:22.970Z,16.51
2023-06-07T04:14:08.195Z,16.19
2023-06-07T04:16:55.037Z,16.47
2023-06-07T04:19:48.162Z,16.40
2023-06-07T04:22:36.982Z,15.61
2023-06-07T04:25:28.281Z,15.68
2023-06-07T04:28:13.887Z,16.32
2023-06-07T04:30:59.792Z,15.18
2023-06-07T04:33:46.784Z,15.18
2023-06-07T04:36:38.392Z,16.18
2023-06-07T04:39:27.564Z,16.07
2023-06-07T04:42:14.142Z,16.04
2023-06-07T04:45:01.522Z,16.12
2023-06-07T04:47:47.628Z,14.92
2023-06-07T04:50:40.121Z,16.10
2023-06-07T04:53:26.145Z,15.50
2023-06-07T04:56:12.704Z,16.14
2023-06-07T04:59:00.340Z,16.05
2023-06-07T05:01:50.178Z,16.10
2023-06-07T05:04:35.498Z,15.02
2023-06-07T05:07:21.309Z,15.55
2023-06-07T05:10:10.355Z,15.08
2023-06-07T05:12:57.384Z,16.20
2023-06-07T05:15:45.361Z,16.19
2023-06-07T05:18:32.019Z,15.75
2023-06-07T05:21:18.577Z,15.87
2023-06-07T05:24:05.079Z,15.22
2023-06-07T05:26:50.882Z,15.50
2023-06-07T05:29:36.358Z,16.17
2023-06-07T05:32:23.875Z,15.24
2023-06-07T05:35:09.629Z,16.19
2023-06-07T05:37:56.235Z,16.02
2023-06-07T05:40:41.307Z,16.01
2023-06-07T05:43:26.945Z,15.55
2023-06-07T05:46:12.643Z,16.12
2023-06-07T05:48:59.012Z,15.20
2023-06-07T05:51:47.147Z,15.10
2023-06-07T05:54:33.226Z,14.87
2023-06-07T05:57:18.660Z,15.91
2023-06-07T06:00:12.539Z,15.37
2023-06-07T06:03:02.796Z,15.73
2023-06-07T06:05:48.389Z,15.87
2023-06-07T06:08:33.651Z,14.95
2023-06-07T06:11:19.659Z,16.01
2023-06-07T06:14:04.858Z,15.98
2023-06-07T06:16:51.575Z,15.99
2023-06-07T06:19:36.875Z,15.88
2023-06-07T06:22:22.258Z,15.89
2023-06-07T06:25:08.347Z,15.43
2023-06-07T06:27:53.598Z,15.74
2023-06-07T06:30:40.061Z,14.74
2023-06-07T06:33:25.738Z,15.46
2023-06-07T06:36:10.980Z,15.65
2023-06-07T06:38:57.389Z,15.61
2023-06-07T06:41:43.008Z,15.11
2023-06-07T06:44:37.703Z,15.49
2023-06-07T06:47:25.767Z,14.59
2023-06-07T06:50:30.449Z,14.31
2023-06-07T06:53:18.444Z,15.16
2023-06-07T06:56:04.087Z,15.44
2023-06-07T06:58:49.855Z,14.34
2023-06-07T07:01:45.522Z,15.40
2023-06-07T07:04:32.495Z,15.01
2023-06-07T07:07:18.180Z,14.25
2023-06-07T07:10:03.887Z,14.26
2023-06-07T07:12:49.896Z,14.38
2023-06-07T07:15:38.379Z,14.24
2023-06-07T07:18:23.543Z,14.46
2023-06-07T07:21:09.322Z,15.44
2023-06-07T07:23:55.881Z,15.42
2023-06-07T07:26:41.307Z,15.37
2023-06-07T07:29:29.024Z,15.30
2023-06-07T07:32:15.028Z,14.95
2023-06-07T07:35:00.838Z,15.47
2023-06-07T07:37:46.932Z,15.13
2023-06-07T07:40:32.849Z,15.61
2023-06-07T07:43:19.008Z,14.73
2023-06-07T07:46:05.015Z,14.99
2023-06-07T07:48:50.646Z,15.07
2023-06-07T07:51:36.382Z,14.55
2023-06-07T07:54:22.560Z,15.80
2023-06-07T07:57:08.224Z,15.83
2023-06-07T07:59:53.938Z,15.83
2023-06-07T08:02:40.110Z,15.75
2023-06-07T08:05:25.936Z,14.74
2023-06-07T08:08:11.994Z,14.99
2023-06-07T08:10:58.520Z,15.79
2023-06-07T08:13:44.539Z,15.39
2023-06-07T08:16:31.297Z,15.79
2023-06-07T08:19:17.650Z,15.80
2023-06-07T08:22:02.910Z,15.32
2023-06-07T08:24:48.180Z,14.89
2023-06-07T08:27:33.605Z,15.44
2023-06-07T08:30:19.020Z,15.56
2023-06-07T08:33:04.277Z,14.75
2023-06-07T08:35:49.749Z,15.70
2023-06-07T08:38:36.064Z,14.84
2023-06-07T08:41:22.575Z,15.72
2023-06-07T08:44:08.011Z,15.51
2023-06-07T08:46:54.684Z,15.72
2023-06-07T08:49:41.628Z,15.80
2023-06-07T08:52:27.818Z,15.71
2023-06-07T08:55:13.414Z,15.62
2023-06-07T08:57:59.467Z,15.92
2023-06-07T09:00:45.384Z,15.73
2023-06-07T09:03:30.944Z,15.06
2023-06-07T09:06:18.169Z,15.40
2023-06-07T09:09:06.906Z,16.11
2023-06-07T09:11:55.598Z,15.03
2023-06-07T09:14:41.706Z,15.43
2023-06-07T09:17:59.951Z,16.33
2023-06-07T09:20:45.985Z,16.18
2023-06-07T09:23:40.182Z,16.43
2023-06-07T09:26:38.488Z,16.03
2023-06-07T09:29:24.548Z,16.49
2023-06-07T09:32:22.665Z,16.48
2023-06-07T09:35:16.275Z,15.19
2023-06-07T09:38:03.089Z,16.42
2023-06-07T09:40:52.608Z,16.31
2023-06-07T09:43:51.577Z,16.51
2023-06-07T09:46:37.448Z,16.61
2023-06-07T09:49:37.158Z,15.48
2023-06-07T09:52:22.825Z,16.45
2023-06-07T09:55:09.900Z,16.64
2023-06-07T09:57:59.325Z,16.50
2023-06-07T10:00:45.667Z,16.68
2023-06-07T10:03:31.558Z,16.69
2023-06-07T10:06:18.484Z,15.68
2023-06-07T10:09:06.289Z,16.44
2023-06-07T10:11:56.123Z,16.67
2023-06-07T10:14:45.686Z,16.38
2023-06-07T10:18:09.880Z,16.67
2023-06-07T10:21:02.301Z,15.74
2023-06-07T10:23:58.769Z,16.66
2023-06-07T10:26:54.226Z,15.54
2023-06-07T10:29:42.695Z,15.70
2023-06-07T10:32:31.113Z,16.54
2023-06-07T10:35:19.188Z,16.52
2023-06-07T10:38:04.318Z,16.46
2023-06-07T10:40:49.936Z,16.45
2023-06-07T10:43:35.711Z,15.49
2023-06-07T10:46:26.820Z,16.43
2023-06-07T10:49:40.704Z,16.43
2023-06-07T10:52:30.119Z,15.27
2023-06-07T10:55:45.519Z,16.44
2023-06-07T10:58:31.216Z,15.39
2023-06-07T11:01:27.170Z,15.37
2023-06-07T11:04:31.808Z,16.25
2023-06-07T11:07:22.244Z,16.43
2023-06-07T11:10:11.076Z,16.41
2023-06-07T11:12:59.333Z,16.29
2023-06-07T11:15:45.259Z,16.33
2023-06-07T11:18:57.833Z,16.40
2023-06-07T11:22:08.056Z,16.36
2023-06-07T11:25:12.825Z,15.22
2023-06-07T11:27:58.517Z,16.11
2023-06-07T11:30:44.438Z,16.31
2023-06-07T11:33:31.606Z,16.30
2023-06-07T11:36:19.709Z,15.18
2023-06-07T11:39:10.125Z,16.20
2023-06-07T11:41:56.494Z,16.25
2023-06-07T11:44:42.312Z,15.82
2023-06-07T11:47:28.030Z,15.47
2023-06-07T11:50:15.760Z,15.33
2023-06-07T11:53:01.370Z,16.12
2023-06-07T11:55:47.656Z,16.35
2023-06-07T11:58:32.839Z,15.35
2023-06-07T12:01:19.828Z,16.23
2023-06-07T12:04:05.344Z,16.24
2023-06-07T12:06:50.765Z,16.31
2023-06-07T12:09:42.832Z,16.54
2023-06-07T12:12:28.726Z,16.54
2023-06-07T12:15:17.156Z,16.59
2023-06-07T12:18:03.751Z,15.79
2023-06-07T12:20:49.857Z,16.66
2023-06-07T12:23:37.194Z,15.59
2023-06-07T12:26:31.960Z,16.31
2023-06-07T12:29:17.767Z,16.46
2023-06-07T12:32:03.605Z,15.64
2023-06-07T12:34:50.122Z,15.74
2023-06-07T12:37:36.616Z,16.20
2023-06-07T12:40:22.038Z,16.74
2023-06-07T12:43:07.682Z,15.69
2023-06-07T12:45:54.340Z,16.56
2023-06-07T12:48:42.539Z,16.83
2023-06-07T12:51:28.296Z,16.84
2023-06-07T12:54:14.706Z,16.78
2023-06-07T12:57:00.133Z,15.88
2023-06-07T12:59:45.442Z,16.91
2023-06-07T13:02:30.958Z,15.80
2023-06-07T13:05:16.351Z,16.09
2023-06-07T13:08:02.784Z,16.70
2023-06-07T13:10:48.242Z,16.19
2023-06-07T13:13:34.635Z,17.03
2023-06-07T13:16:19.940Z,17.07
2023-06-07T13:19:05.596Z,16.87
2023-06-07T13:21:51.069Z,15.93
2023-06-07T13:24:36.427Z,16.88
2023-06-07T13:27:21.907Z,16.15
2023-06-07T13:30:09.140Z,17.26
2023-06-07T13:32:55.436Z,17.11
2023-06-07T13:35:40.668Z,17.35
2023-06-07T13:38:26.562Z,16.44
2023-06-07T13:41:11.865Z,16.56
2023-06-07T13:44:12.312Z,17.47
2023-06-07T13:47:03.337Z,16.48
2023-06-07T13:49:49.516Z,17.54
2023-06-07T13:52:34.851Z,16.85
2023-06-07T13:55:20.151Z,17.09
2023-06-07T13:58:05.381Z,16.97
2023-06-07T14:00:50.656Z,17.58
2023-06-07T14:03:37.003Z,17.13
2023-06-07T14:06:24.133Z,16.49
2023-06-07T14:09:09.968Z,17.06
2023-06-07T14:11:55.422Z,17.48
2023-06-07T14:14:41.048Z,17.49
2023-06-07T14:17:27.209Z,17.54
2023-06-07T14:20:12.750Z,16.84
2023-06-07T14:22:58.662Z,16.74
2023-06-07T14:25:44.102Z,16.83
2023-06-07T14:28:29.484Z,17.70
2023-06-07T14:31:20.336Z,17.75
2023-06-07T14:34:06.016Z,18.12
2023-06-07T14:36:51.748Z,18.17
2023-06-07T14:39:37.527Z,17.16
2023-06-07T14:42:25.749Z,18.22
2023-06-07T14:45:11.517Z,17.58
2023-06-07T14:47:57.267Z,17.57
2023-06-07T14:50:42.521Z,18.11
2023-06-07T14:53:28.126Z,18.45
2023-06-07T14:56:13.356Z,17.59
2023-06-07T14:58:58.732Z,17.57
2023-06-07T15:01:44.232Z,18.49
2023-06-07T15:04:29.705Z,18.56
2023-06-07T15:07:18.712Z,18.56
2023-06-07T15:10:07.022Z,18.56
2023-06-07T15:12:52.681Z,17.46
2023-06-07T15:15:38.197Z,17.46
2023-06-07T15:18:23.624Z,18.56
2023-06-07T15:21:09.272Z,18.64
2023-06-07T15:23:54.825Z,18.00
2023-06-07T15:26:41.998Z,18.69
2023-06-07T15:29:27.464Z,18.24
2023-06-07T15:32:12.959Z,18.79
2023-06-07T15:34:58.236Z,18.82
2023-06-07T15:37:43.677Z,18.60
2023-06-07T15:40:31.203Z,18.84
2023-06-07T15:43:17.146Z,18.80
2023-06-07T15:46:03.732Z,18.76
2023-06-07T15:48:51.579Z,18.60
2023-06-07T15:51:37.214Z,17.68
2023-06-07T15:54:22.928Z,18.73
2023-06-07T15:57:08.538Z,17.69
2023-06-07T15:59:54.144Z,17.73
2023-06-07T16:02:39.333Z,18.72
2023-06-07T16:05:24.845Z,17.93
2023-06-07T16:08:13.902Z,18.72
2023-06-07T16:11:01.237Z,18.16
2023-06-07T16:13:46.602Z,18.05
2023-06-07T16:16:32.609Z,18.85
2023-06-07T16:19:17.880Z,18.86
2023-06-07T16:22:03.631Z,18.90
2023-06-07T16:24:49.910Z,18.89
2023-06-07T16:27:35.581Z,18.89
2023-06-07T16:30:21.096Z,18.06
2023-06-07T16:33:06.630Z,18.63
2023-06-07T16:35:52.816Z,18.33
2023-06-07T16:38:39.022Z,18.72
2023-06-07T16:41:26.616Z,18.55
2023-06-07T16:44:13.547Z,17.86
2023-06-07T16:46:59.005Z,18.74
2023-06-07T16:49:44.773Z,17.94
2023-06-07T16:52:30.091Z,18.91
2023-06-07T16:55:15.737Z,18.94
2023-06-07T16:58:01.295Z,18.20
2023-06-07T17:00:47.329Z,18.81
2023-06-07T17:03:33.530Z,17.95
2023-06-07T17:06:19.426Z,18.94
2023-06-07T17:09:05.933Z,17.90
2023-06-07T17:11:51.250Z,18.96
2023-06-07T17:14:36.459Z,18.95
2023-06-07T17:17:25.018Z,18.78
2023-06-07T17:20:12.106Z,18.59
2023-06-07T17:22:59.608Z,18.52
2023-06-07T17:25:45.145Z,18.27
2023-06-07T17:28:31.878Z,17.92
2023-06-07T17:31:17.577Z,18.95
2023-06-07T17:34:11.394Z,18.08
2023-06-07T17:36:56.843Z,17.93
2023-06-07T17:39:42.348Z,18.21
2023-06-07T17:42:27.684Z,18.74
2023-06-07T17:45:13.209Z,18.48
2023-06-07T17:47:59.522Z,18.50
2023-06-07T17:50:47.482Z,19.00
2023-06-07T17:53:34.737Z,17.99
2023-06-07T17:56:20.601Z,16.59
2023-06-07T17:59:05.996Z,18.95
2023-06-07T18:01:54.992Z,18.73
2023-06-07T18:04:40.825Z,17.89
2023-06-07T18:07:26.957Z,18.78
2023-06-07T18:10:12.345Z,19.03
2023-06-07T18:12:58.417Z,18.71
2023-06-07T18:15:43.860Z,18.97
2023-06-07T18:18:31.613Z,19.13
2023-06-07T18:21:17.598Z,18.80
2023-06-07T18:24:03.309Z,19.14
2023-06-07T18:26:48.682Z,19.07
2023-06-07T18:29:35.052Z,18.64
2023-06-07T18:32:20.737Z,19.04
2023-06-07T18:35:08.967Z,18.11
2023-06-07T18:37:55.148Z,19.04
2023-06-07T18:40:41.160Z,18.03
2023-06-07T18:43:26.499Z,18.13
2023-06-07T18:46:12.713Z,18.61
2023-06-07T18:48:57.955Z,18.08
2023-06-07T18:51:43.464Z,18.82
2023-06-07T18:54:29.149Z,17.84
2023-06-07T18:57:14.691Z,18.90
2023-06-07T19:00:00.271Z,18.89
2023-06-07T19:02:45.724Z,18.86
2023-06-07T19:05:31.306Z,18.85
2023-06-07T19:08:16.678Z,18.81
2023-06-07T19:11:03.759Z,17.83
2023-06-07T19:13:51.652Z,18.81
2023-06-07T19:16:36.811Z,18.74
2023-06-07T19:19:23.261Z,18.78
2023-06-07T19:22:08.932Z,17.73
2023-06-07T19:24:54.126Z,18.72
2023-06-07T19:27:40.198Z,17.98
2023-06-07T19:30:26.048Z,18.21
2023-06-07T19:33:12.046Z,18.52
2023-06-07T19:35:57.574Z,18.36
2023-06-07T19:38:44.665Z,18.34
2023-06-07T19:41:29.971Z,17.54
2023-06-07T19:44:15.367Z,18.50
2023-06-07T19:47:03.212Z,18.28
2023-06-07T19:49:50.222Z,18.45
2023-06-07T19:52:35.827Z,18.30
2023-06-07T19:55:21.128Z,18.38
2023-06-07T19:58:06.761Z,18.42
2023-06-07T20:00:53.453Z,18.22
2023-06-07T20:03:39.060Z,17.41
2023-06-07T20:06:27.565Z,17.88
2023-06-07T20:09:13.035Z,17.51
2023-06-07T20:11:58.348Z,17.89
2023-06-07T20:14:43.958Z,18.08
2023-06-07T20:17:29.559Z,17.12
2023-06-07T20:20:15.115Z,18.22
2023-06-07T20:23:00.960Z,18.02
2023-06-07T20:25:46.560Z,18.13
2023-06-07T20:28:31.937Z,18.07
2023-06-07T20:31:18.880Z,17.60
2023-06-07T20:34:04.615Z,17.86
2023-06-07T20:36:50.611Z,17.27
2023-06-07T20:39:36.103Z,16.99
2023-06-07T20:42:21.541Z,16.95
2023-06-07T20:45:07.521Z,16.90
2023-06-07T20:47:52.930Z,17.90
2023-06-07T20:50:38.165Z,17.48
2023-06-07T20:53:23.708Z,17.68
2023-06-07T20:56:09.025Z,17.96
2023-06-07T20:58:54.770Z,17.93
2023-06-07T21:01:40.118Z,17.80
2023-06-07T21:04:25.473Z,17.63
2023-06-07T21:07:10.823Z,17.83
2023-06-07T21:09:56.374Z,17.90
2023-06-07T21:12:41.564Z,17.91
2023-06-07T21:15:27.114Z,17.91
2023-06-07T21:18:12.753Z,17.79
2023-06-07T21:20:58.574Z,16.85
2023-06-07T21:23:44.045Z,17.35
2023-06-07T21:26:29.328Z,17.88
2023-06-07T21:29:14.608Z,17.89
2023-06-07T21:32:00.136Z,16.80
2023-06-07T21:34:46.762Z,16.91
2023-06-07T21:37:32.272Z,17.80
2023-06-07T21:40:17.557Z,16.65
2023-06-07T21:43:02.856Z,17.47
2023-06-07T21:45:48.174Z,16.70
2023-06-07T21:48:37.054Z,16.59
2023-06-07T21:51:22.319Z,17.32
2023-06-07T21:54:09.081Z,16.51
2023-06-07T21:56:54.817Z,16.50
2023-06-07T21:59:40.362Z,17.32
2023-06-07T22:02:25.776Z,16.46
2023-06-07T22:05:11.193Z,16.37
2023-06-07T22:07:56.604Z,16.45
2023-06-07T22:10:42.664Z,16.25
2023-06-07T22:13:28.481Z,17.22
2023-06-07T22:16:15.050Z,17.25
2023-06-07T22:19:00.767Z,16.17
2023-06-07T22:21:48.454Z,17.23
2023-06-07T22:24:33.978Z,16.94
2023-06-07T22:27:19.438Z,17.24
2023-06-07T22:30:05.965Z,16.96
2023-06-07T22:32:51.471Z,16.40
2023-06-07T22:35:38.479Z,17.19
2023-06-07T22:38:27.091Z,16.21
2023-06-07T22:41:12.453Z,17.01
2023-06-07T22:43:58.411Z,17.07
2023-06-07T22:46:44.007Z,17.01
2023-06-07T22:49:30.339Z,16.12
2023-06-07T22:52:17.796Z,16.62
2023-06-07T22:55:03.919Z,16.98
2023-06-07T22:57:49.445Z,16.99
2023-06-07T23:00:36.141Z,16.80
2023-06-07T23:03:21.741Z,15.89
2023-06-07T23:06:08.354Z,16.65
2023-06-07T23:08:54.392Z,15.62
2023-06-07T23:11:41.115Z,16.01
2023-06-07T23:14:28.925Z,15.54
2023-06-07T23:17:17.054Z,15.42
2023-06-07T23:20:10.668Z,15.32
2023-06-07T23:22:57.068Z,16.16
2023-06-07T23:25:43.532Z,15.22
2023-06-07T23:28:29.178Z,16.12
2023-06-07T23:31:15.172Z,15.98
2023-06-07T23:34:00.911Z,16.29
2023-06-07T23:36:46.227Z,16.33
2023-06-07T23:39:31.466Z,16.45
2023-06-07T23:42:17.398Z,16.24
2023-06-07T23:45:02.747Z,16.14
2023-06-07T23:47:48.315Z,16.55
2023-06-07T23:50:33.350Z,16.57
2023-06-07T23:53:19.426Z,16.22
2023-06-07T23:56:05.162Z,15.72
2023-06-07T23:58:50.815Z,16.67
